Terminal Aerodrome Forecast
Issued by NWS

Home | Current Version | Previous Version | Text Only | Print | Product List | Glossary Off
Versions: 1 2 3 4 5 6 7 8 9 10 11 12 13 14 15 16 17 18 19 20 21 22

095
FTUS43 KMPX 180845 AAA
TAFRNH
TAF AMD
KRNH 180845Z 1809/1906 21009KT 5SM BR OVC005
     FM181000 20008KT 6SM BR SKC
     FM181500 19006KT P6SM SKC=

USA.gov is the U.S. government's official web portal to all federal, state and local government web resources and services.